Startpagina
METAR-TAF:

METAR-TAF

Vliegvelden :

Aeropuerto Capitán Aníbal Arab

Cobija, Bolivia

breedte: 11-02S, lengte: 068-47W, hoogte: 235 m

Actueel weer

Dit bericht is 7 uur en het 32 minuten geleden gemaakt, om 22:00 UTC
Wind 6 kt uit het noorden
Temperatuur 34°C
Vochtigheid 53%
Druk 1010 hPa
Zicht: 5000 m
Weinig wolken op 2500 ft
rook

METAR: SLCO 252200Z 35006KT 5000 FU FEW025 34/23 Q1010

Tijdstip: 01:32 (05:32 UTC)

Verwachting

Dit bericht is 7 uur en het 32 minuten geleden gemaakt, om 22:00 UTC
Verwachting geldig van 26 om 00 UTC tot 26 om 24 UTC
Wind 5 kt uit het noorden
Zicht: 4000 m
Weinig wolken op 2000 ft
rook
Kans 40% :
Tijdelijke
van 26 om 16 UTC tot 26 om 19 UTC
Zicht: 8000 m
Weinig wolken op 2300 ft, Cumulonimbus.
regenbuien

TAF: SLCO 252200Z 2600/2624 35005KT 4000 FU FEW020 TX35/2620Z TN21/ 2611Z PROB40 TEMPO 2616/2619 8000 SHRA FEW023CB

Waarnemingen en weersverwachtingen van meer dan 4000 vliegvelden (METAR en TAF).

De beschikbare stations zijn de gele en rode punten op de kaart.

Ga met uw muis naar het station om de naam te zien.

Klik dan om waarnemingen en weersverwachtingen te zien.

kaart wijzigen: klik op de groene knoppen met een zwart kruis om in te zoomen, op de groene knop met een streepje om uit te zoomen of op de groene pijlen voor aangrenzende kaarten.


METAR-TAF: